LKZ weather

RAF Lakenheath
Lakenheath, England, United Kingdom

Public forecast

Using degrees Celsius for public forecast. Weather courtesy of forecast.io.

Current aviation weather report (METAR) for RAF Lakenheath

Retrieved 2019/10/21 13:38 UTC (11 minutes ago):

EGUL 211338Z AUTO 36007KT 9999 BKN017 BKN027 12/10 A3007 RMK AO2 DZB1257E23 CIG 017V028 BKN017 V SCT CIG 016 RWY06 SLP186

Aviation forecast (TAF) for RAF Lakenheath

Retrieved 2019/10/21 13:00 UTC (49 minutes ago):

TAF TAF EGUL 211213Z 2113/2219 36010KT 9000 -SHRA BKN020 QNH3004INS BECMG 2122/2123 32006KT 9999 BKN015 QNH3013INS BECMG 2203/2207 34004KT 5000 BR FEW008 BKN015 QNH3018INS BECMG 2209/2210 24012KT 9999 NSW BKN020 QNH3018INS TX13/2115Z TN06/2204Z